sensor_id;sensor_type;location;lat;lon;timestamp;pressure;altitude;pressure_sealevel;temperature;humidity
73101;BME280;61288;53.446;-2.266;2022-09-25T00:01:34;102072.00;;;6.47;83.09
73101;BME280;61288;53.446;-2.266;2022-09-25T00:04:00;102065.13;;;6.45;83.51
73101;BME280;61288;53.446;-2.266;2022-09-25T00:06:27;102066.00;;;6.41;83.22
73101;BME280;61288;53.446;-2.266;2022-09-25T00:08:56;102054.84;;;6.35;83.18
73101;BME280;61288;53.446;-2.266;2022-09-25T00:13:48;102048.88;;;6.24;83.25
73101;BME280;61288;53.446;-2.266;2022-09-25T00:16:17;102057.44;;;6.25;83.68
73101;BME280;61288;53.446;-2.266;2022-09-25T00:18:43;102058.31;;;6.25;83.76
73101;BME280;61288;53.446;-2.266;2022-09-25T00:21:27;102063.44;;;6.17;83.86
73101;BME280;61288;53.446;-2.266;2022-09-25T00:23:56;102055.75;;;6.19;84.09
73101;BME280;61288;53.446;-2.266;2022-09-25T00:26:25;102059.16;;;6.22;84.31
73101;BME280;61288;53.446;-2.266;2022-09-25T00:28:52;102051.44;;;6.24;84.48
73101;BME280;61288;53.446;-2.266;2022-09-25T00:31:19;102048.88;;;6.24;85.64
73101;BME280;61288;53.446;-2.266;2022-09-25T00:33:49;102052.28;;;6.25;84.90
73101;BME280;61288;53.446;-2.266;2022-09-25T00:36:15;102049.72;;;6.25;85.15
73101;BME280;61288;53.446;-2.266;2022-09-25T00:38:41;102050.56;;;6.17;84.11
73101;BME280;61288;53.446;-2.266;2022-09-25T00:41:08;102047.16;;;6.12;84.69
73101;BME280;61288;53.446;-2.266;2022-09-25T00:43:49;102045.44;;;6.14;84.86
73101;BME280;61288;53.446;-2.266;2022-09-25T00:46:23;102052.31;;;6.14;84.53
73101;BME280;61288;53.446;-2.266;2022-09-25T00:48:54;102049.72;;;6.09;84.46
73101;BME280;61288;53.446;-2.266;2022-09-25T00:51:27;102061.75;;;6.07;84.72
73101;BME280;61288;53.446;-2.266;2022-09-25T00:53:55;102057.44;;;6.06;84.51
73101;BME280;61288;53.446;-2.266;2022-09-25T00:56:22;102066.88;;;6.04;84.35
73101;BME280;61288;53.446;-2.266;2022-09-25T00:58:48;102065.16;;;6.01;85.50
73101;BME280;61288;53.446;-2.266;2022-09-25T01:01:15;102065.13;;;5.98;84.45
73101;BME280;61288;53.446;-2.266;2022-09-25T01:03:41;102067.69;;;5.98;84.56
73101;BME280;61288;53.446;-2.266;2022-09-25T01:06:11;102066.84;;;5.93;84.23
73101;BME280;61288;53.446;-2.266;2022-09-25T01:08:41;102066.00;;;5.91;84.52
73101;BME280;61288;53.446;-2.266;2022-09-25T01:11:16;102060.84;;;5.91;84.93
73101;BME280;61288;53.446;-2.266;2022-09-25T01:13:42;102061.69;;;5.88;84.77
73101;BME280;61288;53.446;-2.266;2022-09-25T01:16:17;102060.81;;;5.89;85.09
73101;BME280;61288;53.446;-2.266;2022-09-25T01:21:39;102073.69;;;5.85;85.90
73101;BME280;61288;53.446;-2.266;2022-09-25T01:29:47;102061.69;;;5.73;86.50
73101;BME280;61288;53.446;-2.266;2022-09-25T01:33:07;102069.38;;;5.71;85.55
73101;BME280;61288;53.446;-2.266;2022-09-25T01:37:59;102065.09;;;5.67;86.20
73101;BME280;61288;53.446;-2.266;2022-09-25T01:43:24;102056.50;;;5.62;86.31
73101;BME280;61288;53.446;-2.266;2022-09-25T01:45:56;102047.94;;;5.60;85.81
73101;BME280;61288;53.446;-2.266;2022-09-25T01:48:27;102053.91;;;5.54;85.67
73101;BME280;61288;53.446;-2.266;2022-09-25T01:51:57;102055.63;;;5.47;84.56
73101;BME280;61288;53.446;-2.266;2022-09-25T01:53:54;102048.75;;;5.35;85.88
73101;BME280;61288;53.446;-2.266;2022-09-25T01:56:27;102049.59;;;5.34;85.68
73101;BME280;61288;53.446;-2.266;2022-09-25T01:59:05;102041.88;;;5.33;85.67
73101;BME280;61288;53.446;-2.266;2022-09-25T02:01:36;102046.13;;;5.28;84.76
73101;BME280;61288;53.446;-2.266;2022-09-25T02:04:17;102039.25;;;5.20;84.70
73101;BME280;61288;53.446;-2.266;2022-09-25T02:06:48;102039.25;;;5.19;85.07
73101;BME280;61288;53.446;-2.266;2022-09-25T02:09:31;102045.25;;;5.16;85.86
73101;BME280;61288;53.446;-2.266;2022-09-25T02:12:05;102035.81;;;5.17;85.62
73101;BME280;61288;53.446;-2.266;2022-09-25T02:14:37;102038.38;;;5.17;85.37
73101;BME280;61288;53.446;-2.266;2022-09-25T02:17:11;102031.56;;;5.17;85.81
73101;BME280;61288;53.446;-2.266;2022-09-25T02:20:02;102034.09;;;5.19;87.51
73101;BME280;61288;53.446;-2.266;2022-09-25T02:22:48;102027.28;;;5.19;86.85
73101;BME280;61288;53.446;-2.266;2022-09-25T02:25:24;102024.69;;;5.19;86.87
73101;BME280;61288;53.446;-2.266;2022-09-25T02:27:52;102021.25;;;5.22;87.51
73101;BME280;61288;53.446;-2.266;2022-09-25T02:30:18;102019.56;;;5.21;87.26
73101;BME280;61288;53.446;-2.266;2022-09-25T02:32:44;102018.69;;;5.19;87.31
73101;BME280;61288;53.446;-2.266;2022-09-25T02:35:10;102007.56;;;5.17;86.55
73101;BME280;61288;53.446;-2.266;2022-09-25T02:37:36;102010.13;;;5.18;87.97
73101;BME280;61288;53.446;-2.266;2022-09-25T02:40:02;102013.56;;;5.19;87.12
73101;BME280;61288;53.446;-2.266;2022-09-25T02:45:48;102005.00;;;5.23;87.69
73101;BME280;61288;53.446;-2.266;2022-09-25T02:51:18;102010.09;;;5.09;86.33
73101;BME280;61288;53.446;-2.266;2022-09-25T02:54:11;101994.66;;;5.00;86.30
73101;BME280;61288;53.446;-2.266;2022-09-25T02:57:02;101998.94;;;4.99;86.28
73101;BME280;61288;53.446;-2.266;2022-09-25T02:59:31;101996.34;;;4.95;86.35
73101;BME280;61288;53.446;-2.266;2022-09-25T03:02:02;101989.47;;;4.89;86.18
73101;BME280;61288;53.446;-2.266;2022-09-25T03:04:29;101982.63;;;4.88;86.47
73101;BME280;61288;53.446;-2.266;2022-09-25T03:06:56;101975.75;;;4.82;85.96
73101;BME280;61288;53.446;-2.266;2022-09-25T03:09:24;101985.13;;;4.80;86.74
73101;BME280;61288;53.446;-2.266;2022-09-25T03:11:50;101980.91;;;4.82;87.67
73101;BME280;61288;53.446;-2.266;2022-09-25T03:14:18;101978.34;;;4.82;87.83
73101;BME280;61288;53.446;-2.266;2022-09-25T03:16:49;101979.13;;;4.75;86.49
73101;BME280;61288;53.446;-2.266;2022-09-25T03:19:16;101971.44;;;4.73;86.97
73101;BME280;61288;53.446;-2.266;2022-09-25T03:21:45;101978.28;;;4.79;88.91
73101;BME280;61288;53.446;-2.266;2022-09-25T03:24:11;101969.72;;;4.80;88.52
73101;BME280;61288;53.446;-2.266;2022-09-25T03:26:39;101968.88;;;4.78;87.20
73101;BME280;61288;53.446;-2.266;2022-09-25T03:29:07;101971.41;;;4.72;86.64
73101;BME280;61288;53.446;-2.266;2022-09-25T03:31:33;101976.56;;;4.72;87.04
73101;BME280;61288;53.446;-2.266;2022-09-25T03:33:59;101973.13;;;4.70;87.67
73101;BME280;61288;53.446;-2.266;2022-09-25T03:36:27;101975.69;;;4.73;89.23
73101;BME280;61288;53.446;-2.266;2022-09-25T03:38:54;101975.69;;;4.73;88.19
73101;BME280;61288;53.446;-2.266;2022-09-25T03:41:24;101975.69;;;4.70;86.45
73101;BME280;61288;53.446;-2.266;2022-09-25T03:43:53;101974.81;;;4.65;86.49
73101;BME280;61288;53.446;-2.266;2022-09-25T03:46:26;101969.66;;;4.63;86.82
73101;BME280;61288;53.446;-2.266;2022-09-25T03:48:53;101972.22;;;4.61;87.02
73101;BME280;61288;53.446;-2.266;2022-09-25T03:51:20;101977.34;;;4.57;86.87
73101;BME280;61288;53.446;-2.266;2022-09-25T03:53:46;101971.34;;;4.50;87.53
73101;BME280;61288;53.446;-2.266;2022-09-25T03:56:15;101979.91;;;4.52;87.75
73101;BME280;61288;53.446;-2.266;2022-09-25T03:58:42;101976.41;;;4.47;86.60
73101;BME280;61288;53.446;-2.266;2022-09-25T04:01:08;101970.41;;;4.42;86.40
73101;BME280;61288;53.446;-2.266;2022-09-25T04:03:35;101973.84;;;4.39;87.13
73101;BME280;61288;53.446;-2.266;2022-09-25T04:06:02;101972.97;;;4.39;86.87
73101;BME280;61288;53.446;-2.266;2022-09-25T04:08:29;101973.78;;;4.34;86.51
73101;BME280;61288;53.446;-2.266;2022-09-25T04:10:57;101976.31;;;4.27;86.35
73101;BME280;61288;53.446;-2.266;2022-09-25T04:13:26;101970.28;;;4.22;86.10
73101;BME280;61288;53.446;-2.266;2022-09-25T04:15:54;101979.69;;;4.19;86.21
73101;BME280;61288;53.446;-2.266;2022-09-25T04:18:21;101972.00;;;4.18;86.26
73101;BME280;61288;53.446;-2.266;2022-09-25T04:20:47;101975.34;;;4.14;86.01
73101;BME280;61288;53.446;-2.266;2022-09-25T04:23:12;101972.78;;;4.09;85.94
73101;BME280;61288;53.446;-2.266;2022-09-25T04:25:38;101971.91;;;4.04;86.47
73101;BME280;61288;53.446;-2.266;2022-09-25T04:28:03;101963.34;;;4.03;87.69
73101;BME280;61288;53.446;-2.266;2022-09-25T04:33:05;101966.84;;;4.15;88.70
73101;BME280;61288;53.446;-2.266;2022-09-25T04:35:49;101971.16;;;4.19;88.29
73101;BME280;61288;53.446;-2.266;2022-09-25T04:38:15;101972.00;;;4.19;87.34
73101;BME280;61288;53.446;-2.266;2022-09-25T04:40:40;101966.88;;;4.18;87.27
73101;BME280;61288;53.446;-2.266;2022-09-25T04:43:06;101961.72;;;4.16;87.03
73101;BME280;61288;53.446;-2.266;2022-09-25T04:45:34;101953.16;;;4.16;87.57
73101;BME280;61288;53.446;-2.266;2022-09-25T04:48:01;101954.00;;;4.16;87.38
73101;BME280;61288;53.446;-2.266;2022-09-25T04:50:28;101954.91;;;4.20;87.86
73101;BME280;61288;53.446;-2.266;2022-09-25T04:52:56;101946.28;;;4.12;87.08
73101;BME280;61288;53.446;-2.266;2022-09-25T04:55:22;101945.41;;;4.10;87.13
73101;BME280;61288;53.446;-2.266;2022-09-25T04:57:51;101945.41;;;4.10;87.13
73101;BME280;61288;53.446;-2.266;2022-09-25T05:00:18;101942.00;;;4.09;87.38
73101;BME280;61288;53.446;-2.266;2022-09-25T05:02:48;101944.53;;;4.04;86.87
73101;BME280;61288;53.446;-2.266;2022-09-25T05:05:13;101944.50;;;3.98;86.41
73101;BME280;61288;53.446;-2.266;2022-09-25T05:07:50;101941.03;;;3.90;86.25
73101;BME280;61288;53.446;-2.266;2022-09-25T05:10:16;101943.56;;;3.87;87.14
73101;BME280;61288;53.446;-2.266;2022-09-25T05:12:41;101933.31;;;3.88;87.63
73101;BME280;61288;53.446;-2.266;2022-09-25T05:15:08;101936.72;;;3.90;86.91
73101;BME280;61288;53.446;-2.266;2022-09-25T05:17:33;101927.34;;;3.91;87.17
73101;BME280;61288;53.446;-2.266;2022-09-25T05:20:00;101928.19;;;3.92;87.79
73101;BME280;61288;53.446;-2.266;2022-09-25T05:22:26;101920.50;;;3.90;88.48
73101;BME280;61288;53.446;-2.266;2022-09-25T05:24:52;101923.06;;;3.90;88.47
73101;BME280;61288;53.446;-2.266;2022-09-25T05:27:18;101925.59;;;3.88;88.07
73101;BME280;61288;53.446;-2.266;2022-09-25T05:29:43;101919.59;;;3.82;87.28
73101;BME280;61288;53.446;-2.266;2022-09-25T05:32:09;101928.91;;;3.73;87.05
73101;BME280;61288;53.446;-2.266;2022-09-25T05:34:34;101921.22;;;3.73;87.90
73101;BME280;61288;53.446;-2.266;2022-09-25T05:37:00;101922.06;;;3.71;88.61
73101;BME280;61288;53.446;-2.266;2022-09-25T05:39:25;101913.53;;;3.72;89.00
73101;BME280;61288;53.446;-2.266;2022-09-25T05:41:51;101907.53;;;3.71;88.38
73101;BME280;61288;53.446;-2.266;2022-09-25T05:44:16;101908.41;;;3.73;88.20
73101;BME280;61288;53.446;-2.266;2022-09-25T05:46:42;101911.78;;;3.69;88.80
73101;BME280;61288;53.446;-2.266;2022-09-25T05:49:11;101916.06;;;3.67;88.55
73101;BME280;61288;53.446;-2.266;2022-09-25T05:51:36;101917.78;;;3.71;88.42
73101;BME280;61288;53.446;-2.266;2022-09-25T05:54:02;101926.34;;;3.72;87.84
73101;BME280;61288;53.446;-2.266;2022-09-25T05:56:28;101927.13;;;3.63;87.37
73101;BME280;61288;53.446;-2.266;2022-09-25T05:58:53;101927.94;;;3.60;87.75
73101;BME280;61288;53.446;-2.266;2022-09-25T06:01:23;101928.00;;;3.65;89.68
73101;BME280;61288;53.446;-2.266;2022-09-25T06:03:48;101932.28;;;3.66;89.40
73101;BME280;61288;53.446;-2.266;2022-09-25T06:06:14;101931.44;;;3.66;88.53
73101;BME280;61288;53.446;-2.266;2022-09-25T06:08:40;101931.41;;;3.64;87.90
73101;BME280;61288;53.446;-2.266;2022-09-25T06:11:05;101939.94;;;3.63;88.31
73101;BME280;61288;53.446;-2.266;2022-09-25T06:13:32;101932.28;;;3.66;88.87
73101;BME280;61288;53.446;-2.266;2022-09-25T06:16:00;101935.75;;;3.71;89.27
73101;BME280;61288;53.446;-2.266;2022-09-25T06:18:26;101934.06;;;3.76;88.99
73101;BME280;61288;53.446;-2.266;2022-09-25T06:20:59;101937.56;;;3.82;89.58
73101;BME280;61288;53.446;-2.266;2022-09-25T06:23:25;101935.88;;;3.87;89.96
73101;BME280;61288;53.446;-2.266;2022-09-25T06:25:51;101929.06;;;3.92;89.61
73101;BME280;61288;53.446;-2.266;2022-09-25T06:28:17;101923.97;;;3.98;89.66
73101;BME280;61288;53.446;-2.266;2022-09-25T06:30:42;101935.97;;;4.02;90.00
73101;BME280;61288;53.446;-2.266;2022-09-25T06:33:10;101934.31;;;4.09;90.07
73101;BME280;61288;53.446;-2.266;2022-09-25T06:35:47;101932.59;;;4.13;89.58
73101;BME280;61288;53.446;-2.266;2022-09-25T06:38:15;101921.53;;;4.17;90.03
73101;BME280;61288;53.446;-2.266;2022-09-25T06:40:41;101930.97;;;4.21;90.16
73101;BME280;61288;53.446;-2.266;2022-09-25T06:43:09;101929.25;;;4.23;89.80
73101;BME280;61288;53.446;-2.266;2022-09-25T06:45:36;101923.28;;;4.26;90.14
73101;BME280;61288;53.446;-2.266;2022-09-25T06:48:05;101929.28;;;4.29;89.83
73101;BME280;61288;53.446;-2.266;2022-09-25T06:50:52;101920.78;;;4.37;90.32
73101;BME280;61288;53.446;-2.266;2022-09-25T06:53:19;101919.94;;;4.42;90.30
73101;BME280;61288;53.446;-2.266;2022-09-25T06:55:45;101922.53;;;4.48;90.46
73101;BME280;61288;53.446;-2.266;2022-09-25T06:58:13;101922.56;;;4.53;90.52
73101;BME280;61288;53.446;-2.266;2022-09-25T07:00:39;101928.59;;;4.61;90.86
73101;BME280;61288;53.446;-2.266;2022-09-25T07:03:05;101924.31;;;4.67;90.72
73101;BME280;61288;53.446;-2.266;2022-09-25T07:05:50;101933.78;;;4.72;90.59
73101;BME280;61288;53.446;-2.266;2022-09-25T07:08:17;101930.34;;;4.76;90.40
73101;BME280;61288;53.446;-2.266;2022-09-25T07:10:56;101935.50;;;4.80;90.79
73101;BME280;61288;53.446;-2.266;2022-09-25T07:13:24;101927.81;;;4.86;90.99
73101;BME280;61288;53.446;-2.266;2022-09-25T07:15:57;101929.53;;;4.90;90.42
73101;BME280;61288;53.446;-2.266;2022-09-25T07:18:24;101929.53;;;4.93;90.96
73101;BME280;61288;53.446;-2.266;2022-09-25T07:20:50;101930.41;;;4.97;90.72
73101;BME280;61288;53.446;-2.266;2022-09-25T07:23:18;101922.72;;;5.00;90.63
73101;BME280;61288;53.446;-2.266;2022-09-25T07:25:44;101914.16;;;5.04;90.66
73101;BME280;61288;53.446;-2.266;2022-09-25T07:28:11;101921.03;;;5.08;90.63
73101;BME280;61288;53.446;-2.266;2022-09-25T07:30:39;101914.16;;;5.13;90.66
73101;BME280;61288;53.446;-2.266;2022-09-25T07:33:05;101913.34;;;5.17;90.61
73101;BME280;61288;53.446;-2.266;2022-09-25T07:35:32;101915.91;;;5.22;90.51
73101;BME280;61288;53.446;-2.266;2022-09-25T07:37:58;101917.63;;;5.28;90.56
73101;BME280;61288;53.446;-2.266;2022-09-25T07:40:24;101917.63;;;5.34;90.55
73101;BME280;61288;53.446;-2.266;2022-09-25T07:43:03;101905.66;;;5.38;89.98
73101;BME280;61288;53.446;-2.266;2022-09-25T07:45:29;101906.50;;;5.44;90.03
73101;BME280;61288;53.446;-2.266;2022-09-25T07:47:56;101907.38;;;5.49;89.45
73101;BME280;61288;53.446;-2.266;2022-09-25T07:50:22;101908.22;;;5.55;89.47
73101;BME280;61288;53.446;-2.266;2022-09-25T07:52:47;101897.94;;;5.61;89.44
73101;BME280;61288;53.446;-2.266;2022-09-25T07:55:13;101891.09;;;5.64;89.44
73101;BME280;61288;53.446;-2.266;2022-09-25T07:57:40;101897.09;;;5.70;89.32
73101;BME280;61288;53.446;-2.266;2022-09-25T08:00:08;101902.22;;;5.76;89.23
73101;BME280;61288;53.446;-2.266;2022-09-25T08:02:34;101893.63;;;5.78;88.90
73101;BME280;61288;53.446;-2.266;2022-09-25T08:05:00;101887.63;;;5.86;88.85
73101;BME280;61288;53.446;-2.266;2022-09-25T08:07:27;101881.59;;;5.96;88.83
73101;BME280;61288;53.446;-2.266;2022-09-25T08:09:55;101892.75;;;6.04;89.70
73101;BME280;61288;53.446;-2.266;2022-09-25T08:12:21;101890.16;;;6.15;89.17
73101;BME280;61288;53.446;-2.266;2022-09-25T08:14:50;101867.81;;;6.31;89.34
73101;BME280;61288;53.446;-2.266;2022-09-25T08:17:16;101868.59;;;6.49;88.75
73101;BME280;61288;53.446;-2.266;2022-09-25T08:19:41;101880.53;;;6.65;87.87
73101;BME280;61288;53.446;-2.266;2022-09-25T08:22:07;101870.16;;;6.81;87.06
73101;BME280;61288;53.446;-2.266;2022-09-25T08:24:32;101880.34;;;6.98;86.38
73101;BME280;61288;53.446;-2.266;2022-09-25T08:26:58;101874.28;;;7.04;85.77
73101;BME280;61288;53.446;-2.266;2022-09-25T08:29:23;101873.38;;;7.14;85.42
73101;BME280;61288;53.446;-2.266;2022-09-25T08:31:49;101874.97;;;7.26;85.61
73101;BME280;61288;53.446;-2.266;2022-09-25T08:34:15;101877.53;;;7.32;84.81
73101;BME280;61288;53.446;-2.266;2022-09-25T08:36:42;101870.66;;;7.31;83.67
73101;BME280;61288;53.446;-2.266;2022-09-25T08:39:08;101874.06;;;7.36;85.10
73101;BME280;61288;53.446;-2.266;2022-09-25T08:41:47;101867.06;;;7.48;84.05
73101;BME280;61288;53.446;-2.266;2022-09-25T08:46:54;101848.06;;;7.58;83.89
73101;BME280;61288;53.446;-2.266;2022-09-25T08:49:45;101858.28;;;7.69;84.34
73101;BME280;61288;53.446;-2.266;2022-09-25T08:52:16;101855.59;;;7.82;84.30
73101;BME280;61288;53.446;-2.266;2022-09-25T08:54:42;101861.41;;;7.99;84.45
73101;BME280;61288;53.446;-2.266;2022-09-25T08:57:36;101846.59;;;8.17;83.36
73101;BME280;61288;53.446;-2.266;2022-09-25T09:00:16;101831.69;;;8.37;83.09
73101;BME280;61288;53.446;-2.266;2022-09-25T09:02:56;101839.19;;;8.59;83.08
73101;BME280;61288;53.446;-2.266;2022-09-25T09:05:28;101827.84;;;8.70;81.43
73101;BME280;61288;53.446;-2.266;2022-09-25T09:08:08;101829.34;;;8.85;81.80
73101;BME280;61288;53.446;-2.266;2022-09-25T09:10:39;101829.97;;;9.01;80.67
73101;BME280;61288;53.446;-2.266;2022-09-25T09:13:21;101821.06;;;9.19;80.42
73101;BME280;61288;53.446;-2.266;2022-09-25T09:15:52;101814.78;;;9.34;79.70
73101;BME280;61288;53.446;-2.266;2022-09-25T09:18:26;101804.25;;;9.43;79.32
73101;BME280;61288;53.446;-2.266;2022-09-25T09:20:58;101808.47;;;9.49;78.80
73101;BME280;61288;53.446;-2.266;2022-09-25T09:26:14;101798.44;;;9.77;78.20
73101;BME280;61288;53.446;-2.266;2022-09-25T09:34:43;101788.72;;;10.31;77.03
73101;BME280;61288;53.446;-2.266;2022-09-25T09:37:25;101798.84;;;10.44;76.83
73101;BME280;61288;53.446;-2.266;2022-09-25T09:42:37;101787.53;;;10.48;77.03
73101;BME280;61288;53.446;-2.266;2022-09-25T09:48:19;101791.03;;;10.45;77.04
73101;BME280;61288;53.446;-2.266;2022-09-25T09:50:52;101780.59;;;10.50;77.24
73101;BME280;61288;53.446;-2.266;2022-09-25T09:53:36;101774.50;;;10.51;77.04
73101;BME280;61288;53.446;-2.266;2022-09-25T09:58:49;101772.66;;;10.56;76.87
73101;BME280;61288;53.446;-2.266;2022-09-25T10:01:18;101775.19;;;10.58;76.29
73101;BME280;61288;53.446;-2.266;2022-09-25T10:03:48;101763.91;;;10.62;76.82
73101;BME280;61288;53.446;-2.266;2022-09-25T10:06:15;101761.19;;;10.66;76.59
73101;BME280;61288;53.446;-2.266;2022-09-25T10:08:42;101762.88;;;10.69;76.28
73101;BME280;61288;53.446;-2.266;2022-09-25T10:11:16;101758.34;;;10.76;76.35
73101;BME280;61288;53.446;-2.266;2022-09-25T10:13:42;101759.03;;;10.84;77.18
73101;BME280;61288;53.446;-2.266;2022-09-25T10:16:15;101755.47;;;10.88;77.72
73101;BME280;61288;53.446;-2.266;2022-09-25T10:19:03;101750.13;;;10.94;76.51
73101;BME280;61288;53.446;-2.266;2022-09-25T10:21:31;101745.69;;;11.00;76.27
73101;BME280;61288;53.446;-2.266;2022-09-25T10:23:58;101744.88;;;10.97;76.07
73101;BME280;61288;53.446;-2.266;2022-09-25T10:26:37;101738.97;;;10.92;75.62
73101;BME280;61288;53.446;-2.266;2022-09-25T10:31:41;101731.09;;;10.95;76.96
73101;BME280;61288;53.446;-2.266;2022-09-25T10:34:17;101731.78;;;11.02;76.27
73101;BME280;61288;53.446;-2.266;2022-09-25T10:36:47;101728.16;;;11.08;76.83
73101;BME280;61288;53.446;-2.266;2022-09-25T10:39:31;101726.38;;;11.11;76.54
73101;BME280;61288;53.446;-2.266;2022-09-25T10:41:58;101715.00;;;11.16;76.38
73101;BME280;61288;53.446;-2.266;2022-09-25T10:44:33;101716.78;;;11.13;76.43
73101;BME280;61288;53.446;-2.266;2022-09-25T10:50:23;101700.44;;;11.11;76.13
73101;BME280;61288;53.446;-2.266;2022-09-25T10:52:55;101698.56;;;11.17;76.57
73101;BME280;61288;53.446;-2.266;2022-09-25T10:55:29;101696.69;;;11.22;76.89
73101;BME280;61288;53.446;-2.266;2022-09-25T11:00:41;101692.88;;;11.35;76.82
73101;BME280;61288;53.446;-2.266;2022-09-25T11:03:14;101699.63;;;11.41;76.66
73101;BME280;61288;53.446;-2.266;2022-09-25T11:05:49;101683.97;;;11.44;76.15
73101;BME280;61288;53.446;-2.266;2022-09-25T11:08:17;101677.75;;;11.50;76.31
73101;BME280;61288;53.446;-2.266;2022-09-25T11:10:57;101679.31;;;11.55;76.79
73101;BME280;61288;53.446;-2.266;2022-09-25T11:13:27;101683.56;;;11.58;76.42
73101;BME280;61288;53.446;-2.266;2022-09-25T11:15:59;101682.84;;;11.53;75.52
73101;BME280;61288;53.446;-2.266;2022-09-25T11:18:45;101676.09;;;11.47;75.95
73101;BME280;61288;53.446;-2.266;2022-09-25T11:21:32;101672.66;;;11.47;76.27
73101;BME280;61288;53.446;-2.266;2022-09-25T11:26:50;101656.38;;;11.40;76.82
73101;BME280;61288;53.446;-2.266;2022-09-25T11:29:53;101657.34;;;11.37;76.65
73101;BME280;61288;53.446;-2.266;2022-09-25T11:32:42;101649.50;;;11.39;77.70
73101;BME280;61288;53.446;-2.266;2022-09-25T11:38:47;101646.69;;;11.47;78.20
73101;BME280;61288;53.446;-2.266;2022-09-25T11:41:43;101649.25;;;11.48;77.41
73101;BME280;61288;53.446;-2.266;2022-09-25T11:44:14;101644.91;;;11.49;76.09
73101;BME280;61288;53.446;-2.266;2022-09-25T11:47:07;101650.06;;;11.50;76.48
73101;BME280;61288;53.446;-2.266;2022-09-25T11:49:40;101647.47;;;11.50;76.05
73101;BME280;61288;53.446;-2.266;2022-09-25T12:00:21;101625.66;;;11.56;75.68
73101;BME280;61288;53.446;-2.266;2022-09-25T12:06:02;101626.19;;;11.67;76.42
73101;BME280;61288;53.446;-2.266;2022-09-25T12:08:53;101620.84;;;11.72;75.10
73101;BME280;61288;53.446;-2.266;2022-09-25T12:19:28;101618.63;;;11.88;73.34
73101;BME280;61288;53.446;-2.266;2022-09-25T12:22:21;101602.91;;;11.93;74.17
73101;BME280;61288;53.446;-2.266;2022-09-25T12:25:03;101602.53;;;12.05;73.81
73101;BME280;61288;53.446;-2.266;2022-09-25T12:27:42;101599.47;;;12.21;73.66
73101;BME280;61288;53.446;-2.266;2022-09-25T12:33:09;101593.38;;;12.47;71.16
73101;BME280;61288;53.446;-2.266;2022-09-25T12:38:22;101576.66;;;12.54;71.51
73101;BME280;61288;53.446;-2.266;2022-09-25T12:43:47;101565.44;;;12.54;70.69
73101;BME280;61288;53.446;-2.266;2022-09-25T12:46:38;101554.47;;;12.69;67.92
73101;BME280;61288;53.446;-2.266;2022-09-25T12:49:20;101546.69;;;12.93;66.72
73101;BME280;61288;53.446;-2.266;2022-09-25T12:51:51;101542.03;;;13.25;67.30
73101;BME280;61288;53.446;-2.266;2022-09-25T12:54:35;101537.53;;;13.53;65.62
73101;BME280;61288;53.446;-2.266;2022-09-25T12:57:22;101545.78;;;13.64;65.23
73101;BME280;61288;53.446;-2.266;2022-09-25T13:03:26;101543.69;;;13.72;65.04
73101;BME280;61288;53.446;-2.266;2022-09-25T13:08:21;101549.53;;;13.79;65.41
73101;BME280;61288;53.446;-2.266;2022-09-25T13:11:01;101530.69;;;13.72;64.72
73101;BME280;61288;53.446;-2.266;2022-09-25T13:13:44;101524.34;;;13.57;64.93
73101;BME280;61288;53.446;-2.266;2022-09-25T13:16:13;101531.13;;;13.38;64.67
73101;BME280;61288;53.446;-2.266;2022-09-25T13:18:46;101530.84;;;13.23;66.13
73101;BME280;61288;53.446;-2.266;2022-09-25T13:21:24;101523.59;;;13.08;66.62
73101;BME280;61288;53.446;-2.266;2022-09-25T13:23:54;101525.59;;;13.01;67.47
73101;BME280;61288;53.446;-2.266;2022-09-25T13:26:23;101522.38;;;12.94;67.45
73101;BME280;61288;53.446;-2.266;2022-09-25T13:28:54;101514.16;;;12.81;67.25
73101;BME280;61288;53.446;-2.266;2022-09-25T13:31:27;101506.56;;;12.77;67.44
73101;BME280;61288;53.446;-2.266;2022-09-25T13:39:00;101490.47;;;12.65;69.02
73101;BME280;61288;53.446;-2.266;2022-09-25T13:42:03;101472.97;;;12.70;68.88
73101;BME280;61288;53.446;-2.266;2022-09-25T14:00:50;101422.25;;;13.05;65.32
73101;BME280;61288;53.446;-2.266;2022-09-25T14:03:44;101426.31;;;13.12;65.58
73101;BME280;61288;53.446;-2.266;2022-09-25T14:06:24;101420.22;;;13.13;66.78
73101;BME280;61288;53.446;-2.266;2022-09-25T14:08:54;101421.22;;;13.09;64.79
73101;BME280;61288;53.446;-2.266;2022-09-25T14:11:28;101417.16;;;13.02;66.54
73101;BME280;61288;53.446;-2.266;2022-09-25T14:14:00;101424.47;;;12.92;67.22
73101;BME280;61288;53.446;-2.266;2022-09-25T14:16:31;101418.72;;;12.83;66.08
73101;BME280;61288;53.446;-2.266;2022-09-25T14:18:59;101428.47;;;12.78;68.46
73101;BME280;61288;53.446;-2.266;2022-09-25T14:21:27;101425.94;;;12.77;67.04
73101;BME280;61288;53.446;-2.266;2022-09-25T14:24:10;101428.59;;;12.75;67.13
73101;BME280;61288;53.446;-2.266;2022-09-25T14:26:44;101425.25;;;12.71;67.89
73101;BME280;61288;53.446;-2.266;2022-09-25T14:29:15;101431.19;;;12.75;68.68
73101;BME280;61288;53.446;-2.266;2022-09-25T14:32:01;101410.03;;;12.84;67.63
73101;BME280;61288;53.446;-2.266;2022-09-25T14:40:39;101400.59;;;13.04;64.91
73101;BME280;61288;53.446;-2.266;2022-09-25T14:43:36;101400.66;;;13.03;65.86
73101;BME280;61288;53.446;-2.266;2022-09-25T14:54:23;101378.63;;;13.11;62.89
73101;BME280;61288;53.446;-2.266;2022-09-25T14:56:54;101380.75;;;13.02;65.08
73101;BME280;61288;53.446;-2.266;2022-09-25T15:02:02;101388.63;;;12.78;63.72
73101;BME280;61288;53.446;-2.266;2022-09-25T15:04:32;101376.81;;;12.69;63.76
73101;BME280;61288;53.446;-2.266;2022-09-25T15:07:45;101382.19;;;12.64;65.83
73101;BME280;61288;53.446;-2.266;2022-09-25T15:09:48;101383.25;;;12.59;66.24
73101;BME280;61288;53.446;-2.266;2022-09-25T15:12:26;101381.56;;;12.57;67.65
73101;BME280;61288;53.446;-2.266;2022-09-25T15:14:57;101386.06;;;12.54;68.34
73101;BME280;61288;53.446;-2.266;2022-09-25T15:17:23;101380.84;;;12.54;68.21
73101;BME280;61288;53.446;-2.266;2022-09-25T15:19:50;101367.66;;;12.59;68.99
73101;BME280;61288;53.446;-2.266;2022-09-25T15:22:36;101352.69;;;12.65;68.03